Time;durP1;ratioP1;P1;durP2;ratioP2;P2;SDS_P1;SDS_P2;PMS_P1;PMS_P2;Temp;Humidity;BMP_temperature;BMP_pressure;BME280_temperature;BME280_humidity;BME280_pressure;Samples;Min_cycle;Max_cycle;Signal;HPM_P1;HPM_P2
2022/03/26 00:00:56;;;;;;;;;;;;;;;10.17;60.96;101269.28;5075881;28;20391;-64
2022/03/26 00:03:40;;;;;;;;;;;;;;;10.18;60.68;101273.63;5075635;28;19928;-64
2022/03/26 00:06:24;;;;;;;;;;;;;;;10.17;60.77;101269.28;5060249;28;20329;-64
2022/03/26 00:09:07;;;;;;;;;;;;;;;10.16;60.72;101275.28;5075284;28;20014;-64
2022/03/26 00:11:51;;;;;;;;;;;;;;;10.14;60.79;101266.56;5075472;28;19974;-64
2022/03/26 00:14:35;;;;;;;;;;;;;;;10.14;60.52;101279.53;5075215;28;19983;-64
2022/03/26 00:17:19;;;;;;;;;;;;;;;10.15;60.43;101274.38;5075074;28;19927;-64
2022/03/26 00:20:04;;;;;;;;;;;;;;;10.15;60.82;101276.97;5075582;28;19981;-64
2022/03/26 00:22:47;;;;;;;;;;;;;;;10.15;60.64;101281.28;5074974;28;20058;-64
2022/03/26 00:25:31;;;;;;;;;;;;;;;10.14;60.69;101284.69;5060433;28;19973;-64
2022/03/26 00:28:15;;;;;;;;;;;;;;;10.11;60.45;101280.31;5060081;28;19932;-64
2022/03/26 00:30:59;;;;;;;;;;;;;;;10.11;60.68;101282.91;5074800;28;19927;-64
2022/03/26 00:33:43;;;;;;;;;;;;;;;10.11;60.72;101279.41;5074585;28;19927;-64
2022/03/26 00:36:26;;;;;;;;;;;;;;;10.12;60.89;101287.22;5074929;28;19966;-65
2022/03/26 00:39:10;;;;;;;;;;;;;;;10.11;60.45;101282.00;5059385;28;19942;-64
2022/03/26 00:41:54;;;;;;;;;;;;;;;10.12;60.92;101282.03;5074811;28;19928;-64
2022/03/26 00:44:39;;;;;;;;;;;;;;;10.11;60.90;101282.00;5074988;28;19981;-63
2022/03/26 00:47:23;;;;;;;;;;;;;;;10.11;60.61;101284.59;5059219;28;19969;-64
2022/03/26 00:50:07;;;;;;;;;;;;;;;10.10;60.63;101288.91;5059425;28;19973;-64
2022/03/26 00:52:51;;;;;;;;;;;;;;;10.10;60.52;101282.81;5074323;28;19974;-65
2022/03/26 00:55:34;;;;;;;;;;;;;;;10.07;60.86;101286.19;5059477;28;20019;-64
2022/03/26 00:58:18;;;;;;;;;;;;;;;10.07;60.88;101281.00;5059297;28;19978;-64
2022/03/26 01:01:02;;;;;;;;;;;;;;;10.05;60.49;101291.28;5074010;28;19970;-64
2022/03/26 01:03:46;;;;;;;;;;;;;;;10.06;60.87;101285.28;5073748;28;20017;-65
2022/03/26 01:06:30;;;;;;;;;;;;;;;10.05;60.67;101280.94;5074053;28;19943;-64
2022/03/26 01:09:14;;;;;;;;;;;;;;;10.03;60.90;101279.13;5059434;28;20395;-64
2022/03/26 01:11:57;;;;;;;;;;;;;;;10.03;60.60;101287.78;5073850;28;20443;-64
2022/03/26 01:14:42;;;;;;;;;;;;;;;10.02;60.87;101280.84;5058936;28;19927;-64
2022/03/26 01:17:25;;;;;;;;;;;;;;;10.00;60.65;101279.88;5074472;28;19947;-64
2022/03/26 01:20:10;;;;;;;;;;;;;;;10.01;60.84;101281.66;5073632;28;20027;-64
2022/03/26 01:22:53;;;;;;;;;;;;;;;9.99;60.90;101278.13;5058976;28;19926;-64
2022/03/26 01:25:37;;;;;;;;;;;;;;;9.97;60.83;101282.34;5058878;28;19974;-64
2022/03/26 01:28:21;;;;;;;;;;;;;;;9.99;60.89;101278.13;5073508;28;19928;-64
2022/03/26 01:31:05;;;;;;;;;;;;;;;9.99;60.80;101287.59;5073945;28;19982;-65
2022/03/26 01:33:49;;;;;;;;;;;;;;;9.97;60.89;101279.75;5074022;28;19943;-64
2022/03/26 01:36:33;;;;;;;;;;;;;;;9.97;60.73;101284.03;5058655;28;19927;-64
2022/03/26 01:39:20;;;;;;;;;;;;;;;9.96;61.11;101284.91;5073663;28;19928;-64
2022/03/26 01:42:05;;;;;;;;;;;;;;;9.95;60.97;101273.63;5058693;28;19978;-64
2022/03/26 01:44:49;;;;;;;;;;;;;;;9.96;60.81;101278.00;5058600;28;19981;-64
2022/03/26 01:47:34;;;;;;;;;;;;;;;9.93;60.70;101272.69;5073940;28;19943;-64
2022/03/26 01:50:17;;;;;;;;;;;;;;;9.93;60.80;101270.09;5073332;28;19928;-65
2022/03/26 01:53:01;;;;;;;;;;;;;;;9.92;60.69;101270.94;5058442;28;20028;-64
2022/03/26 01:55:45;;;;;;;;;;;;;;;9.94;61.05;101268.41;5073587;28;19975;-66
2022/03/26 01:58:29;;;;;;;;;;;;;;;9.92;61.16;101265.75;5058427;28;20004;-64
2022/03/26 02:01:13;;;;;;;;;;;;;;;9.90;60.78;101268.28;5058307;28;20467;-66
2022/03/26 02:03:57;;;;;;;;;;;;;;;9.90;60.66;101262.22;5058355;28;20456;-64
2022/03/26 02:06:41;;;;;;;;;;;;;;;9.91;60.77;101261.38;5073777;28;19966;-64
2022/03/26 02:09:25;;;;;;;;;;;;;;;9.90;60.81;101260.53;5058570;28;20397;-64
2022/03/26 02:12:22;;;;;;;;;;;;;;;9.90;61.05;101257.94;5058566;28;20377;-64
2022/03/26 02:15:08;;;;;;;;;;;;;;;9.88;61.04;101258.72;5058586;28;20303;-64
2022/03/26 02:17:52;;;;;;;;;;;;;;;9.89;61.15;101263.94;5062455;28;20292;-64
2022/03/26 02:20:37;;;;;;;;;;;;;;;9.86;61.16;101256.03;5077286;28;20342;-65
2022/03/26 02:23:22;;;;;;;;;;;;;;;9.86;61.02;101248.28;5077381;28;20006;-64
2022/03/26 02:26:06;;;;;;;;;;;;;;;9.85;61.10;101254.28;5077058;28;20453;-64
2022/03/26 02:28:50;;;;;;;;;;;;;;;9.86;61.01;101257.75;5077344;28;19928;-64
2022/03/26 02:31:34;;;;;;;;;;;;;;;9.84;60.88;101252.50;5076831;28;19928;-65
2022/03/26 02:34:18;;;;;;;;;;;;;;;9.84;61.06;101249.91;5076929;28;19928;-64
2022/03/26 02:37:02;;;;;;;;;;;;;;;9.86;61.04;101250.00;5077148;28;19990;-64
2022/03/26 02:39:46;;;;;;;;;;;;;;;9.84;60.91;101252.50;5076950;28;19944;-65
2022/03/26 02:42:30;;;;;;;;;;;;;;;9.85;60.76;101249.09;5062082;28;20032;-65
2022/03/26 02:45:14;;;;;;;;;;;;;;;9.85;60.86;101246.50;5077013;28;19926;-65
2022/03/26 02:48:00;;;;;;;;;;;;;;;9.87;60.98;101251.75;5076371;28;19943;-64
2022/03/26 02:50:45;;;;;;;;;;;;;;;9.90;60.96;101249.25;5061884;28;19927;-64
2022/03/26 02:53:28;;;;;;;;;;;;;;;9.93;61.23;101253.69;5061658;28;20398;-64
2022/03/26 02:56:12;;;;;;;;;;;;;;;9.95;61.06;101250.34;5062019;28;19950;-64
2022/03/26 02:58:56;;;;;;;;;;;;;;;9.96;61.35;101249.50;5076517;28;20401;-65
2022/03/26 03:01:41;;;;;;;;;;;;;;;9.96;61.35;101244.31;5076339;28;19966;-64
2022/03/26 03:04:25;;;;;;;;;;;;;;;9.95;61.16;101244.28;5061511;28;19931;-65
2022/03/26 03:07:09;;;;;;;;;;;;;;;9.94;61.25;101243.38;5076386;28;19928;-64
2022/03/26 03:09:53;;;;;;;;;;;;;;;9.94;61.09;101245.09;5076701;28;19927;-64
2022/03/26 03:12:37;;;;;;;;;;;;;;;9.90;61.32;101260.53;5061744;28;19970;-65
2022/03/26 03:15:21;;;;;;;;;;;;;;;9.89;61.07;101257.84;5076536;28;19927;-64
2022/03/26 03:18:05;;;;;;;;;;;;;;;9.86;61.06;101255.19;5075986;28;20429;-64
2022/03/26 03:20:49;;;;;;;;;;;;;;;9.84;61.32;101255.09;5076064;28;19928;-64
2022/03/26 03:23:33;;;;;;;;;;;;;;;9.82;61.07;101261.06;5061022;28;19974;-64
2022/03/26 03:26:16;;;;;;;;;;;;;;;9.81;61.06;101261.88;5060794;28;19928;-64
2022/03/26 03:29:00;;;;;;;;;;;;;;;9.80;61.28;101265.28;5060364;28;20019;-64
2022/03/26 03:31:47;;;;;;;;;;;;;;;9.78;61.01;101273.00;5076491;28;19927;-64
2022/03/26 03:34:31;;;;;;;;;;;;;;;9.77;60.84;101266.06;5076133;28;19927;-64
2022/03/26 03:37:15;;;;;;;;;;;;;;;9.77;61.02;101272.91;5060900;28;19932;-64
2022/03/26 03:39:59;;;;;;;;;;;;;;;9.74;61.06;101271.97;5076056;28;20291;-65
2022/03/26 03:42:44;;;;;;;;;;;;;;;9.75;61.06;101272.88;5061210;28;19981;-64
2022/03/26 03:45:28;;;;;;;;;;;;;;;9.73;61.13;101280.56;5075721;28;19928;-64
2022/03/26 03:48:12;;;;;;;;;;;;;;;9.73;61.11;101277.09;5076009;28;19926;-65
2022/03/26 03:50:56;;;;;;;;;;;;;;;9.74;60.91;101271.09;5060740;28;19967;-64
2022/03/26 03:53:40;;;;;;;;;;;;;;;9.74;61.02;101277.16;5075299;28;19927;-64
2022/03/26 03:56:24;;;;;;;;;;;;;;;9.77;61.07;101280.69;5060882;28;19927;-65
2022/03/26 03:59:07;;;;;;;;;;;;;;;9.77;61.06;101272.91;5075937;28;19928;-64
2022/03/26 04:01:51;;;;;;;;;;;;;;;9.74;61.36;101284.91;5060434;28;19927;-65
2022/03/26 04:04:39;;;;;;;;;;;;;;;9.74;61.13;101286.66;5075373;28;19931;-64
2022/03/26 04:07:23;;;;;;;;;;;;;;;9.72;61.04;101288.28;5060331;28;19927;-64
2022/03/26 04:10:07;;;;;;;;;;;;;;;9.70;61.01;101285.66;5060885;28;19974;-64
2022/03/26 04:12:52;;;;;;;;;;;;;;;9.69;61.18;101290.75;5060085;28;20287;-64
2022/03/26 04:15:35;;;;;;;;;;;;;;;9.68;61.09;101292.47;5060506;28;19931;-65
2022/03/26 04:18:19;;;;;;;;;;;;;;;9.64;61.44;101290.56;5075272;28;19927;-65
2022/03/26 04:21:03;;;;;;;;;;;;;;;9.63;61.07;101288.81;5075344;28;19966;-64
2022/03/26 04:23:47;;;;;;;;;;;;;;;9.62;61.20;101287.03;5075274;28;20336;-65
2022/03/26 04:26:31;;;;;;;;;;;;;;;9.62;61.21;101291.34;5060082;28;19927;-64
2022/03/26 04:29:15;;;;;;;;;;;;;;;9.60;61.18;101296.44;5074736;28;19927;-64
2022/03/26 04:31:59;;;;;;;;;;;;;;;9.58;61.17;101298.06;5059847;28;19963;-64
2022/03/26 04:34:42;;;;;;;;;;;;;;;9.57;61.25;101292.03;5074472;28;19928;-64
2022/03/26 04:37:28;;;;;;;;;;;;;;;9.56;61.43;101294.56;5075262;28;19928;-64
2022/03/26 04:40:12;;;;;;;;;;;;;;;9.54;61.36;101297.09;5059887;28;20394;-64
2022/03/26 04:42:56;;;;;;;;;;;;;;;9.54;61.25;101289.31;5059981;28;20397;-64
2022/03/26 04:45:40;;;;;;;;;;;;;;;9.53;61.63;101297.91;5074746;28;19943;-64
2022/03/26 04:48:24;;;;;;;;;;;;;;;9.53;61.25;101302.22;5059441;28;19928;-64
2022/03/26 04:51:09;;;;;;;;;;;;;;;9.53;61.33;101299.63;5074412;28;19926;-65
2022/03/26 04:53:53;;;;;;;;;;;;;;;9.51;61.41;101294.38;5059579;28;19926;-64
2022/03/26 04:56:37;;;;;;;;;;;;;;;9.52;61.27;101292.69;5074363;28;20406;-64
2022/03/26 04:59:21;;;;;;;;;;;;;;;9.54;61.53;101293.63;5074396;28;19928;-65
2022/03/26 05:02:05;;;;;;;;;;;;;;;9.56;61.69;101298.03;5074213;28;19927;-65
2022/03/26 05:04:49;;;;;;;;;;;;;;;9.58;61.48;101295.50;5059767;28;19927;-64
2022/03/26 05:07:48;;;;;;;;;;;;;;;9.61;61.58;101290.44;5059045;28;20402;-64
2022/03/26 05:10:32;;;;;;;;;;;;;;;9.65;61.88;101294.06;5059411;28;19927;-64
2022/03/26 05:13:17;;;;;;;;;;;;;;;9.66;61.41;101298.38;5074222;28;20371;-65
2022/03/26 05:16:04;;;;;;;;;;;;;;;9.67;61.48;101305.31;5074176;28;20020;-64
2022/03/26 05:18:48;;;;;;;;;;;;;;;9.67;61.39;101302.75;5074245;28;20279;-64
2022/03/26 05:21:32;;;;;;;;;;;;;;;9.62;61.41;101307.75;5073960;28;20011;-64
2022/03/26 05:24:16;;;;;;;;;;;;;;;9.59;61.36;101313.69;5059427;28;19931;-64
2022/03/26 05:27:00;;;;;;;;;;;;;;;9.57;61.37;101310.16;5073517;28;20066;-64
2022/03/26 05:29:46;;;;;;;;;;;;;;;9.57;61.49;101306.69;5073936;28;20295;-64
2022/03/26 05:32:31;;;;;;;;;;;;;;;9.55;61.42;101306.63;5058473;28;19970;-65
2022/03/26 05:35:15;;;;;;;;;;;;;;;9.54;61.41;101304.84;5058679;28;19942;-64
2022/03/26 05:37:59;;;;;;;;;;;;;;;9.53;61.65;101312.56;5073962;28;19927;-64
2022/03/26 05:40:43;;;;;;;;;;;;;;;9.52;61.53;101310.78;5073892;28;19928;-64
2022/03/26 05:43:27;;;;;;;;;;;;;;;9.53;61.63;101312.56;5073365;28;19974;-65
2022/03/26 05:46:11;;;;;;;;;;;;;;;9.53;61.50;101316.00;5074074;28;19974;-64
2022/03/26 05:48:54;;;;;;;;;;;;;;;9.56;61.54;101321.31;5058316;28;20021;-64
2022/03/26 05:51:38;;;;;;;;;;;;;;;9.56;61.57;101321.31;5058003;28;19981;-65
2022/03/26 05:54:22;;;;;;;;;;;;;;;9.55;61.58;101321.28;5073879;28;20334;-64
2022/03/26 05:57:06;;;;;;;;;;;;;;;9.55;61.51;101323.88;5058807;28;19927;-64
2022/03/26 05:59:50;;;;;;;;;;;;;;;9.55;61.55;101329.91;5058607;28;19982;-64
2022/03/26 06:02:34;;;;;;;;;;;;;;;9.54;61.64;101328.13;5058218;28;19943;-65
2022/03/26 06:05:18;;;;;;;;;;;;;;;9.54;61.71;101338.50;5073518;28;19926;-64
2022/03/26 06:08:02;;;;;;;;;;;;;;;9.54;61.60;101337.63;5058571;28;19986;-64
2022/03/26 06:10:45;;;;;;;;;;;;;;;9.54;61.84;101338.50;5073575;28;19932;-64
2022/03/26 06:13:29;;;;;;;;;;;;;;;9.52;61.51;101344.44;5058812;28;19927;-64
2022/03/26 06:16:14;;;;;;;;;;;;;;;9.51;61.75;101340.06;5073753;28;19979;-65
2022/03/26 06:18:58;;;;;;;;;;;;;;;9.52;61.58;101349.59;5058350;28;19927;-64
2022/03/26 06:21:42;;;;;;;;;;;;;;;9.51;61.48;101347.84;5073759;28;19928;-64
2022/03/26 06:24:26;;;;;;;;;;;;;;;9.49;61.45;101346.88;5058408;28;19974;-64
2022/03/26 06:27:10;;;;;;;;;;;;;;;9.48;61.70;101351.19;5058537;28;19970;-64
2022/03/26 06:29:54;;;;;;;;;;;;;;;9.44;61.94;101351.88;5058560;28;19936;-64
2022/03/26 06:32:38;;;;;;;;;;;;;;;9.44;61.71;101360.50;5073658;28;20446;-64
2022/03/26 06:35:22;;;;;;;;;;;;;;;9.44;62.01;101370.00;5073805;28;20429;-64
2022/03/26 06:38:05;;;;;;;;;;;;;;;9.42;61.81;101366.47;5073457;28;20391;-64
2022/03/26 06:40:49;;;;;;;;;;;;;;;9.42;61.71;101362.16;5058478;28;19928;-64
2022/03/26 06:43:34;;;;;;;;;;;;;;;9.40;61.94;101358.66;5057687;28;19927;-64
2022/03/26 06:46:17;;;;;;;;;;;;;;;9.40;61.82;101358.66;5073577;28;20370;-64
2022/03/26 06:49:02;;;;;;;;;;;;;;;9.40;61.79;101361.22;5072914;28;20441;-64
2022/03/26 06:51:46;;;;;;;;;;;;;;;9.42;61.92;101362.16;5058201;28;19975;-64
2022/03/26 06:54:30;;;;;;;;;;;;;;;9.42;61.80;101366.47;5073204;28;19975;-64
2022/03/26 06:57:14;;;;;;;;;;;;;;;9.43;61.87;101369.09;5072712;28;20009;-64
2022/03/26 06:59:58;;;;;;;;;;;;;;;9.45;62.16;101371.78;5072694;28;20005;-64
2022/03/26 07:02:43;;;;;;;;;;;;;;;9.45;61.93;101371.78;5059253;28;20403;-64
2022/03/26 07:05:27;;;;;;;;;;;;;;;9.45;61.94;101380.41;5061274;28;19931;-64
2022/03/26 07:08:10;;;;;;;;;;;;;;;9.44;61.93;101386.41;5076220;28;20029;-64
2022/03/26 07:10:54;;;;;;;;;;;;;;;9.44;61.93;101383.81;5061402;28;19927;-64
2022/03/26 07:13:38;;;;;;;;;;;;;;;9.44;61.92;101390.69;5076032;28;19928;-64
2022/03/26 07:16:22;;;;;;;;;;;;;;;9.42;62.20;101382.84;5076562;28;19974;-64
2022/03/26 07:19:06;;;;;;;;;;;;;;;9.43;62.10;101387.22;5076346;28;19970;-64
2022/03/26 07:21:50;;;;;;;;;;;;;;;9.43;62.10;101388.94;5061500;28;19965;-64
2022/03/26 07:24:34;;;;;;;;;;;;;;;9.43;61.95;101389.78;5076375;28;20303;-65
2022/03/26 07:27:18;;;;;;;;;;;;;;;9.44;61.98;101395.88;5075946;28;19974;-64
2022/03/26 07:30:03;;;;;;;;;;;;;;;9.45;62.13;101395.94;5060915;28;20291;-64
2022/03/26 07:32:47;;;;;;;;;;;;;;;9.45;62.09;101395.06;5075904;28;19927;-64
2022/03/26 07:35:31;;;;;;;;;;;;;;;9.47;62.13;101395.09;5076503;28;20287;-64
2022/03/26 07:38:15;;;;;;;;;;;;;;;9.45;62.10;101393.34;5076463;28;19928;-64
2022/03/26 07:40:59;;;;;;;;;;;;;;;9.46;62.14;101404.59;5060998;28;19927;-64
2022/03/26 07:43:43;;;;;;;;;;;;;;;9.46;62.40;101407.19;5075816;28;19928;-64
2022/03/26 07:46:27;;;;;;;;;;;;;;;9.48;62.18;101404.66;5075825;28;20381;-64
2022/03/26 07:49:11;;;;;;;;;;;;;;;9.50;62.35;101410.78;5076166;28;19985;-64
2022/03/26 07:51:54;;;;;;;;;;;;;;;9.52;62.13;101409.13;5060614;28;20026;-64
2022/03/26 07:54:39;;;;;;;;;;;;;;;9.52;62.18;101411.72;5076132;28;19927;-64
2022/03/26 07:57:23;;;;;;;;;;;;;;;9.53;62.33;101410.91;5076012;28;19927;-64
2022/03/26 08:00:07;;;;;;;;;;;;;;;9.55;62.29;101414.44;5075698;28;19935;-64
2022/03/26 08:02:50;;;;;;;;;;;;;;;9.55;62.48;101417.03;5075612;28;20014;-64
2022/03/26 08:05:34;;;;;;;;;;;;;;;9.57;62.39;101424.03;5075388;28;19969;-64
2022/03/26 08:08:18;;;;;;;;;;;;;;;9.59;62.33;101416.31;5060181;28;20020;-64
2022/03/26 08:11:02;;;;;;;;;;;;;;;9.58;62.12;101415.44;5075125;28;20367;-64
2022/03/26 08:13:46;;;;;;;;;;;;;;;9.59;62.37;101421.50;5075383;28;20020;-64
2022/03/26 08:16:30;;;;;;;;;;;;;;;9.60;62.29;101418.09;5060166;28;19974;-64
2022/03/26 08:19:14;;;;;;;;;;;;;;;9.61;62.33;101417.28;5074855;28;20302;-64
2022/03/26 08:21:58;;;;;;;;;;;;;;;9.60;62.49;101421.59;5075229;28;19927;-63
2022/03/26 08:24:41;;;;;;;;;;;;;;;9.60;62.34;101424.16;5059919;28;19927;-64
2022/03/26 08:27:25;;;;;;;;;;;;;;;9.64;62.12;101435.53;5059891;28;19931;-64
2022/03/26 08:30:11;;;;;;;;;;;;;;;9.65;62.59;101437.31;5074608;28;19927;-64
2022/03/26 08:32:55;;;;;;;;;;;;;;;9.66;62.18;101440.75;5059673;28;19927;-64
2022/03/26 08:35:40;;;;;;;;;;;;;;;9.65;62.21;101437.31;5060194;28;20393;-64
2022/03/26 08:38:24;;;;;;;;;;;;;;;9.67;62.21;101435.66;5059641;28;19975;-64
2022/03/26 08:41:08;;;;;;;;;;;;;;;9.69;62.28;101434.03;5059234;28;20421;-64
2022/03/26 08:43:51;;;;;;;;;;;;;;;9.72;62.34;101438.44;5074990;28;19927;-64
2022/03/26 08:46:35;;;;;;;;;;;;;;;9.70;62.47;101435.81;5074541;28;20366;-64
2022/03/26 08:49:19;;;;;;;;;;;;;;;9.71;62.39;101434.97;5074590;28;19927;-64
2022/03/26 08:52:03;;;;;;;;;;;;;;;9.71;62.30;101434.97;5074590;28;19962;-65
2022/03/26 08:54:48;;;;;;;;;;;;;;;9.73;62.24;101440.22;5074538;28;20291;-64
2022/03/26 08:57:32;;;;;;;;;;;;;;;9.74;62.50;101436.81;5059032;28;19926;-64
2022/03/26 09:00:17;;;;;;;;;;;;;;;9.74;62.38;101435.09;5074316;28;20045;-64
2022/03/26 09:03:02;;;;;;;;;;;;;;;9.79;62.34;101432.72;5053228;28;19928;-63
2022/03/26 09:05:47;;;;;;;;;;;;;;;9.80;62.39;101431.00;5053206;28;19931;-63
2022/03/26 09:08:31;;;;;;;;;;;;;;;9.83;62.28;101436.31;5053857;28;19935;-64
2022/03/26 09:11:15;;;;;;;;;;;;;;;9.84;62.57;101431.19;5054359;28;19970;-64
2022/03/26 09:14:00;;;;;;;;;;;;;;;9.88;62.38;101438.25;5054100;28;20421;-64
2022/03/26 09:16:44;;;;;;;;;;;;;;;9.91;62.42;101447.84;5054490;28;20395;-64
2022/03/26 09:19:28;;;;;;;;;;;;;;;9.94;62.57;101434.16;5054398;28;20293;-64
2022/03/26 09:22:12;;;;;;;;;;;;;;;9.95;62.37;101444.56;5053348;28;20375;-63
2022/03/26 09:24:56;;;;;;;;;;;;;;;9.95;62.30;101439.38;5052521;28;19931;-63
2022/03/26 09:27:40;;;;;;;;;;;;;;;9.96;62.58;101443.75;5053502;28;19974;-63
2022/03/26 09:30:24;;;;;;;;;;;;;;;9.97;62.16;101440.34;5053162;28;19928;-63
2022/03/26 09:33:08;;;;;;;;;;;;;;;10.00;62.57;101442.16;5054032;28;20038;-64
2022/03/26 09:35:52;;;;;;;;;;;;;;;10.00;62.59;101436.97;5053707;28;19928;-64
2022/03/26 09:38:35;;;;;;;;;;;;;;;10.00;62.44;101431.81;5054349;28;20362;-64
2022/03/26 09:41:22;;;;;;;;;;;;;;;10.01;62.51;101442.25;5052969;28;19928;-65
2022/03/26 09:44:06;;;;;;;;;;;;;;;10.05;62.54;101441.53;5052699;28;19936;-64
2022/03/26 09:46:50;;;;;;;;;;;;;;;10.09;62.67;101431.28;5053301;28;19986;-64
2022/03/26 09:49:34;;;;;;;;;;;;;;;10.10;62.56;101436.56;5053911;28;19970;-64
2022/03/26 09:52:19;;;;;;;;;;;;;;;10.11;62.57;101433.13;5053285;28;19927;-64
2022/03/26 09:55:04;;;;;;;;;;;;;;;10.12;62.64;101426.25;5053847;28;19928;-63
2022/03/26 09:57:49;;;;;;;;;;;;;;;10.12;62.46;101429.69;5052862;28;19994;-64
2022/03/26 10:00:33;;;;;;;;;;;;;;;10.16;62.57;101430.72;5053762;28;20390;-64
2022/03/26 10:03:17;;;;;;;;;;;;;;;10.16;62.34;101422.97;5071881;28;20046;-64
2022/03/26 10:06:04;;;;;;;;;;;;;;;10.19;62.49;101428.25;5058349;28;19928;-63
2022/03/26 10:08:48;;;;;;;;;;;;;;;10.19;62.59;101423.09;5058075;28;20020;-63
2022/03/26 10:11:33;;;;;;;;;;;;;;;10.22;62.63;101430.94;5058539;28;19928;-63
2022/03/26 10:14:18;;;;;;;;;;;;;;;10.25;62.55;101423.31;5073311;28;20413;-63
2022/03/26 10:17:22;;;;;;;;;;;;;;;10.29;62.25;101425.19;5058243;28;19927;-64
2022/03/26 10:20:07;;;;;;;;;;;;;;;10.32;62.57;101424.44;5058194;28;20091;-64
2022/03/26 10:22:51;;;;;;;;;;;;;;;10.30;62.32;101426.97;5073171;28;19927;-63
2022/03/26 10:25:35;;;;;;;;;;;;;;;10.33;62.41;101424.50;5058000;28;19977;-65
2022/03/26 10:28:23;;;;;;;;;;;;;;;10.33;62.44;101421.91;5073165;28;19965;-63
2022/03/26 10:34:27;;;;;;;;;;;;;;;10.39;62.22;101417.81;5073350;28;19974;-63
2022/03/26 10:37:11;;;;;;;;;;;;;;;10.41;62.09;101416.16;5075058;28;19928;-64
2022/03/26 10:39:55;;;;;;;;;;;;;;;10.41;61.85;101406.69;5062014;28;19927;-64
2022/03/26 10:42:39;;;;;;;;;;;;;;;10.45;62.22;101407.69;5076658;28;19931;-63
2022/03/26 10:45:23;;;;;;;;;;;;;;;10.46;62.21;101409.47;5077142;28;19976;-63
2022/03/26 10:48:09;;;;;;;;;;;;;;;10.46;62.21;101409.47;5076622;28;20041;-64
2022/03/26 10:50:58;;;;;;;;;;;;;;;10.50;62.20;101411.34;5061654;28;20019;-64
2022/03/26 10:53:43;;;;;;;;;;;;;;;10.50;61.79;101407.03;5076758;28;19927;-63
2022/03/26 10:56:27;;;;;;;;;;;;;;;10.52;61.77;101401.91;5062026;28;20429;-64
2022/03/26 10:59:11;;;;;;;;;;;;;;;10.54;61.87;101404.56;5062066;28;19928;-64
2022/03/26 11:01:55;;;;;;;;;;;;;;;10.57;61.60;101404.69;5076543;28;20413;-64
2022/03/26 11:04:39;;;;;;;;;;;;;;;10.59;61.65;101395.25;5076492;28;20303;-64
2022/03/26 11:07:25;;;;;;;;;;;;;;;10.56;61.62;101387.38;5076427;28;19970;-64
2022/03/26 11:10:10;;;;;;;;;;;;;;;10.57;61.66;101390.00;5076349;28;19966;-64
2022/03/26 11:12:55;;;;;;;;;;;;;;;10.59;62.10;101392.66;5076548;28;19967;-64
2022/03/26 11:15:42;;;;;;;;;;;;;;;10.61;61.37;101394.47;5076377;28;19927;-64
2022/03/26 11:18:27;;;;;;;;;;;;;;;10.64;61.40;101392.00;5076745;28;20342;-64
2022/03/26 11:21:14;;;;;;;;;;;;;;;10.65;61.54;101391.19;5076229;28;19974;-64
2022/03/26 11:24:00;;;;;;;;;;;;;;;10.66;61.82;101394.66;5076309;28;19944;-64
2022/03/26 11:27:03;;;;;;;;;;;;;;;10.63;61.49;101390.25;5061580;28;19928;-63
2022/03/26 11:29:50;;;;;;;;;;;;;;;10.65;61.43;101386.00;5075814;28;19943;-64
2022/03/26 11:32:36;;;;;;;;;;;;;;;10.64;61.78;101385.94;5060907;28;19928;-64
2022/03/26 11:35:19;;;;;;;;;;;;;;;10.65;61.59;101374.72;5076109;28;20033;-64
2022/03/26 11:38:04;;;;;;;;;;;;;;;10.68;61.23;101373.94;5075957;28;20275;-63
2022/03/26 11:40:53;;;;;;;;;;;;;;;10.71;61.50;101381.84;5060798;28;20424;-63
2022/03/26 11:43:43;;;;;;;;;;;;;;;10.71;61.46;101371.47;5061072;28;20024;-64
2022/03/26 11:52:38;;;;;;;;;;;;;;;10.73;61.54;101369.81;5075937;28;19943;-64
2022/03/26 11:55:25;;;;;;;;;;;;;;;10.71;61.10;101369.78;5075480;28;20456;-64
2022/03/26 11:58:12;;;;;;;;;;;;;;;10.73;61.02;101369.81;5076126;28;20321;-63
2022/03/26 12:01:03;;;;;;;;;;;;;;;10.72;61.16;101370.66;5075665;28;19931;-64
2022/03/26 12:03:48;;;;;;;;;;;;;;;10.74;61.33;101369.00;5075461;28;19928;-64
2022/03/26 12:06:40;;;;;;;;;;;;;;;10.78;60.85;101365.69;5060644;28;20073;-64
2022/03/26 12:09:28;;;;;;;;;;;;;;;10.79;60.90;101364.88;5075516;28;19942;-63
2022/03/26 12:12:16;;;;;;;;;;;;;;;10.78;60.98;101369.16;5075332;28;19927;-64
2022/03/26 12:15:04;;;;;;;;;;;;;;;10.78;61.45;101357.91;5075256;28;20029;-64
2022/03/26 12:17:53;;;;;;;;;;;;;;;10.79;60.98;101360.56;5075014;28;20027;-64
2022/03/26 12:20:40;;;;;;;;;;;;;;;10.81;61.04;101350.25;5060446;28;20279;-64
2022/03/26 12:23:28;;;;;;;;;;;;;;;10.83;60.83;101353.75;5075432;28;20046;-64
2022/03/26 12:26:12;;;;;;;;;;;;;;;10.84;60.87;101341.69;5075135;28;19928;-64
2022/03/26 12:28:58;;;;;;;;;;;;;;;10.85;61.06;101346.06;5075051;28;20026;-66
2022/03/26 12:31:41;;;;;;;;;;;;;;;10.85;60.61;101343.47;5075334;28;20394;-64
2022/03/26 12:34:26;;;;;;;;;;;;;;;10.85;60.92;101341.75;5075122;28;19926;-64
2022/03/26 12:37:10;;;;;;;;;;;;;;;10.82;60.91;101339.94;5074927;28;19971;-64
2022/03/26 12:39:54;;;;;;;;;;;;;;;10.84;60.75;101326.13;5075073;28;19927;-63
2022/03/26 12:42:38;;;;;;;;;;;;;;;10.84;61.02;101333.91;5059979;28;19927;-64
2022/03/26 12:45:22;;;;;;;;;;;;;;;10.81;61.02;101327.78;5074428;28;19928;-64
2022/03/26 12:48:13;;;;;;;;;;;;;;;10.81;60.72;101321.72;5060016;28;19970;-64
2022/03/26 12:51:02;;;;;;;;;;;;;;;10.82;60.77;101333.88;5059788;28;20386;-63
2022/03/26 12:53:46;;;;;;;;;;;;;;;10.86;60.53;101322.75;5059869;28;19962;-63
2022/03/26 12:56:30;;;;;;;;;;;;;;;10.85;60.91;101318.41;5074381;28;19927;-64
2022/03/26 12:59:14;;;;;;;;;;;;;;;10.88;60.58;101317.63;5074501;28;19943;-64
2022/03/26 13:01:58;;;;;;;;;;;;;;;10.91;60.54;101321.22;5074542;28;19928;-64
2022/03/26 13:04:42;;;;;;;;;;;;;;;10.91;60.55;101323.81;5073973;28;19927;-64
2022/03/26 13:07:26;;;;;;;;;;;;;;;10.92;60.59;101320.38;5074040;28;19978;-64
2022/03/26 13:10:10;;;;;;;;;;;;;;;10.91;60.55;101315.13;5059082;28;19928;-64
2022/03/26 13:12:54;;;;;;;;;;;;;;;10.93;60.33;101309.19;5074310;28;19927;-65
2022/03/26 13:15:38;;;;;;;;;;;;;;;10.94;60.78;101297.97;5059329;28;19927;-64
2022/03/26 13:18:22;;;;;;;;;;;;;;;10.93;60.39;101304.00;5073896;28;19974;-64
2022/03/26 13:21:06;;;;;;;;;;;;;;;10.93;60.76;101304.00;5074535;28;20295;-64
2022/03/26 13:24:00;;;;;;;;;;;;;;;10.93;60.45;101298.81;5073996;28;19927;-64
2022/03/26 13:26:47;;;;;;;;;;;;;;;10.92;60.50;101302.22;5073805;28;19970;-64
2022/03/26 13:29:35;;;;;;;;;;;;;;;10.91;60.96;101296.97;5058233;28;20225;-64
2022/03/26 13:32:19;;;;;;;;;;;;;;;10.91;60.77;101284.00;5059058;28;19966;-64
2022/03/26 13:35:03;;;;;;;;;;;;;;;10.93;60.52;101291.03;5058969;28;19965;-64
2022/03/26 13:37:47;;;;;;;;;;;;;;;10.99;60.09;101298.13;5074245;28;19931;-64
2022/03/26 13:40:32;;;;;;;;;;;;;;;11.01;60.25;101300.78;5073626;28;20023;-65
2022/03/26 13:43:16;;;;;;;;;;;;;;;11.00;60.34;101289.53;5059037;28;19977;-64
2022/03/26 13:46:00;;;;;;;;;;;;;;;10.97;60.29;101286.81;5073562;28;19989;-64
2022/03/26 13:48:45;;;;;;;;;;;;;;;11.01;60.17;101287.81;5058242;28;19946;-64
2022/03/26 13:51:33;;;;;;;;;;;;;;;11.03;60.36;101288.75;5073809;28;19927;-64
2022/03/26 13:54:26;;;;;;;;;;;;;;;11.02;60.31;101287.88;5058985;28;19928;-64
2022/03/26 13:57:10;;;;;;;;;;;;;;;11.01;60.23;101287.81;5059017;28;19928;-64
2022/03/26 13:59:54;;;;;;;;;;;;;;;11.01;60.23;101277.41;5073852;28;19928;-64
2022/03/26 14:02:38;;;;;;;;;;;;;;;11.04;60.30;101275.84;5073379;28;20050;-64
2022/03/26 14:05:26;;;;;;;;;;;;;;;11.03;60.20;101268.88;5073581;28;19959;-64
2022/03/26 14:08:11;;;;;;;;;;;;;;;11.04;60.30;101272.34;5058166;28;20307;-64
2022/03/26 14:10:55;;;;;;;;;;;;;;;11.03;60.09;101286.16;5058610;28;20441;-64
2022/03/26 14:13:39;;;;;;;;;;;;;;;11.04;60.41;101280.13;5077839;28;19928;-64
2022/03/26 14:16:23;;;;;;;;;;;;;;;11.02;60.35;101271.41;5077881;28;19927;-64
2022/03/26 14:19:07;;;;;;;;;;;;;;;11.01;60.30;101270.53;5077290;28;19950;-64
2022/03/26 14:21:51;;;;;;;;;;;;;;;11.01;60.25;101267.03;5062237;28;20304;-64